SBPP/PMG METAR and TAF weather

Enter ICAO airport designator
Station Type Date Time Source
SBPP METAR 2019/04/25 16:00 UTC NOAA

SBPP 251600Z 03008KT 9999 SCT025 30/21 Q1019


Station Type Date Time Source
SBPP Decoded METAR 2019/04/25 16:00 UTC NOAA

Ponta Pora Intl , Brazil (SBPP) 22-33S 055-42W
Apr 25, 2019 - 12:00 PM EDT / 2019.04.25 1600 UTC
Wind: from the NNE (030 degrees) at 9 MPH (8 KT):0
Visibility: greater than 7 mile(s):0
Sky conditions: partly cloudy
Temperature: 86 F (30 C)
Dew Point: 69 F (21 C)
Relative Humidity: 58%
Pressure (altimeter): 30.09 in. Hg (1019 hPa)
ob: SBPP 251600Z 03008KT 9999 SCT025 30/21 Q1019
cycle: 16

Station Type Date Time Source
SBPP TAF 2019/04/25 18:55 UTC NOAA

TAF SBPP 251530Z 2518/2618 33010KT 9999 SCT020 TN20/2609Z TX32/2618Z
TEMPO 2518/2520 TSRA BKN020 FEW030CB
BECMG 2520/2522 05007KT CAVOK
RMK PCO

Example: see airport list